Time,TemperatureF,DewpointF,PressureIn,WindDirection,WindDirectionDegrees,WindSpeedMPH,WindSpeedGustMPH,Humidity,HourlyPrecipIn,Conditions,Clouds,dailyrainin,SoftwareType,DateUTC
2018-04-25 00:03:00,52.8,39.9,30.11,North,-9999,-999.9,-999.0,61,-99.99,,,-99.99,BloomSky,2018-04-25 04:03:00,
2018-04-25 00:08:00,52.8,39.8,30.11,North,-9999,-999.9,-999.0,61,-99.99,,,-99.99,BloomSky,2018-04-25 04:08:00,
2018-04-25 00:13:00,52.7,39.7,30.11,North,-9999,-999.9,-999.0,61,-99.99,,,-99.99,BloomSky,2018-04-25 04:13:00,
2018-04-25 00:18:00,52.5,39.6,30.11,North,-9999,-999.9,-999.0,61,-99.99,,,-99.99,BloomSky,2018-04-25 04:18:00,
2018-04-25 00:23:00,52.5,39.6,30.11,North,-9999,-999.9,-999.0,61,-99.99,,,-99.99,BloomSky,2018-04-25 04:23:00,
2018-04-25 00:28:00,52.4,39.9,30.11,North,-9999,-999.9,-999.0,62,-99.99,,,-99.99,BloomSky,2018-04-25 04:28:00,
2018-04-25 00:33:00,52.2,39.6,30.11,North,-9999,-999.9,-999.0,62,-99.99,,,-99.99,BloomSky,2018-04-25 04:33:00,
2018-04-25 00:38:00,52.1,39.6,30.11,North,-9999,-999.9,-999.0,62,-99.99,,,-99.99,BloomSky,2018-04-25 04:38:00,
2018-04-25 00:43:00,51.9,39.4,30.11,North,-9999,-999.9,-999.0,62,-99.99,,,-99.99,BloomSky,2018-04-25 04:43:00,
2018-04-25 00:49:00,51.8,39.3,30.11,North,-9999,-999.9,-999.0,62,-99.99,,,-99.99,BloomSky,2018-04-25 04:49:00,
2018-04-25 00:54:00,51.7,39.2,30.11,North,-9999,-999.9,-999.0,62,-99.99,,,-99.99,BloomSky,2018-04-25 04:54:00,
2018-04-25 00:59:00,51.7,38.8,30.11,North,-9999,-999.9,-999.0,61,-99.99,,,-99.99,BloomSky,2018-04-25 04:59:00,
2018-04-25 01:04:00,51.8,38.0,30.11,North,-9999,-999.9,-999.0,59,-99.99,,,-99.99,BloomSky,2018-04-25 05:04:00,
2018-04-25 01:09:00,51.9,38.1,30.11,North,-9999,-999.9,-999.0,59,-99.99,,,-99.99,BloomSky,2018-04-25 05:09:00,
2018-04-25 01:14:00,51.7,37.9,30.11,North,-9999,-999.9,-999.0,59,-99.99,,,-99.99,BloomSky,2018-04-25 05:14:00,
2018-04-25 01:19:00,51.7,37.9,30.11,North,-9999,-999.9,-999.0,59,-99.99,,,-99.99,BloomSky,2018-04-25 05:19:00,
2018-04-25 01:24:00,51.5,37.8,30.11,North,-9999,-999.9,-999.0,59,-99.99,,,-99.99,BloomSky,2018-04-25 05:24:00,
2018-04-25 01:29:00,51.4,38.1,30.11,North,-9999,-999.9,-999.0,60,-99.99,,,-99.99,BloomSky,2018-04-25 05:29:00,
2018-04-25 01:34:00,51.3,37.6,30.11,North,-9999,-999.9,-999.0,59,-99.99,,,-99.99,BloomSky,2018-04-25 05:34:00,
2018-04-25 01:39:00,51.3,37.5,30.11,North,-9999,-999.9,-999.0,59,-99.99,,,-99.99,BloomSky,2018-04-25 05:39:00,
2018-04-25 01:44:00,51.2,37.5,30.11,North,-9999,-999.9,-999.0,59,-99.99,,,-99.99,BloomSky,2018-04-25 05:44:00,
2018-04-25 01:49:00,51.3,37.6,30.11,North,-9999,-999.9,-999.0,59,-99.99,,,-99.99,BloomSky,2018-04-25 05:49:00,
2018-04-25 01:54:00,51.4,37.7,30.11,North,-9999,-999.9,-999.0,59,-99.99,,,-99.99,BloomSky,2018-04-25 05:54:00,
2018-04-25 01:59:00,51.4,38.1,30.11,North,-9999,-999.9,-999.0,60,-99.99,,,-99.99,BloomSky,2018-04-25 05:59:00,
2018-04-25 02:04:00,51.4,37.6,30.08,North,-9999,-999.9,-999.0,59,-99.99,,,-99.99,BloomSky,2018-04-25 06:04:00,
2018-04-25 02:09:00,51.3,37.6,30.11,North,-9999,-999.9,-999.0,59,-99.99,,,-99.99,BloomSky,2018-04-25 06:09:00,
2018-04-25 02:14:00,51.3,37.5,30.08,North,-9999,-999.9,-999.0,59,-99.99,,,-99.99,BloomSky,2018-04-25 06:14:00,
2018-04-25 02:19:00,51.1,37.4,30.08,North,-9999,-999.9,-999.0,59,-99.99,,,-99.99,BloomSky,2018-04-25 06:19:00,
2018-04-25 02:24:00,51.1,37.3,30.08,North,-9999,-999.9,-999.0,59,-99.99,,,-99.99,BloomSky,2018-04-25 06:24:00,
2018-04-25 02:29:00,50.9,37.1,30.08,North,-9999,-999.9,-999.0,59,-99.99,,,-99.99,BloomSky,2018-04-25 06:29:00,
2018-04-25 02:34:00,50.6,37.4,30.08,North,-9999,-999.9,-999.0,60,-99.99,,,-99.99,BloomSky,2018-04-25 06:34:00,
2018-04-25 02:39:00,50.5,37.2,30.08,North,-9999,-999.9,-999.0,60,-99.99,,,-99.99,BloomSky,2018-04-25 06:39:00,
2018-04-25 02:44:00,50.3,37.4,30.08,North,-9999,-999.9,-999.0,61,-99.99,,,-99.99,BloomSky,2018-04-25 06:44:00,
2018-04-25 02:49:00,50.1,37.2,30.08,North,-9999,-999.9,-999.0,61,-99.99,,,-99.99,BloomSky,2018-04-25 06:49:00,
2018-04-25 02:54:00,50.0,38.0,30.08,North,-9999,-999.9,-999.0,63,-99.99,,,-99.99,BloomSky,2018-04-25 06:54:00,
2018-04-25 02:59:00,50.0,37.6,30.08,North,-9999,-999.9,-999.0,62,-99.99,,,-99.99,BloomSky,2018-04-25 06:59:00,
2018-04-25 03:04:00,50.3,38.3,30.08,North,-9999,-999.9,-999.0,63,-99.99,,,-99.99,BloomSky,2018-04-25 07:04:00,
2018-04-25 03:10:00,50.4,38.0,30.08,North,-9999,-999.9,-999.0,62,-99.99,,,-99.99,BloomSky,2018-04-25 07:10:00,
2018-04-25 03:15:00,50.4,38.0,30.08,North,-9999,-999.9,-999.0,62,-99.99,,,-99.99,BloomSky,2018-04-25 07:15:00,
2018-04-25 03:20:00,50.5,38.4,30.08,North,-9999,-999.9,-999.0,63,-99.99,,,-99.99,BloomSky,2018-04-25 07:20:00,
2018-04-25 03:25:00,50.5,38.1,30.08,North,-9999,-999.9,-999.0,62,-99.99,,,-99.99,BloomSky,2018-04-25 07:25:00,
2018-04-25 03:30:00,50.6,38.2,30.08,North,-9999,-999.9,-999.0,62,-99.99,,,-99.99,BloomSky,2018-04-25 07:30:00,
2018-04-25 03:35:00,50.6,38.5,30.08,North,-9999,-999.9,-999.0,63,-99.99,,,-99.99,BloomSky,2018-04-25 07:35:00,
2018-04-25 03:40:00,50.6,38.1,30.08,North,-9999,-999.9,-999.0,62,-99.99,,,-99.99,BloomSky,2018-04-25 07:40:00,
2018-04-25 03:45:00,50.6,38.1,30.08,North,-9999,-999.9,-999.0,62,-99.99,,,-99.99,BloomSky,2018-04-25 07:45:00,
2018-04-25 03:50:00,50.5,38.1,30.08,North,-9999,-999.9,-999.0,62,-99.99,,,-99.99,BloomSky,2018-04-25 07:50:00,
2018-04-25 03:55:00,50.4,38.0,30.08,North,-9999,-999.9,-999.0,62,-99.99,,,-99.99,BloomSky,2018-04-25 07:55:00,
2018-04-25 04:00:00,50.4,38.0,30.08,North,-9999,-999.9,-999.0,62,-99.99,,,-99.99,BloomSky,2018-04-25 08:00:00,
2018-04-25 04:05:00,50.2,39.0,30.05,North,-9999,-999.9,-999.0,65,-99.99,,,-99.99,BloomSky,2018-04-25 08:05:00,
2018-04-25 04:10:00,50.1,37.7,30.08,North,-9999,-999.9,-999.0,62,-99.99,,,-99.99,BloomSky,2018-04-25 08:10:00,
2018-04-25 04:15:00,50.1,38.1,30.06,North,-9999,-999.9,-999.0,63,-99.99,,,-99.99,BloomSky,2018-04-25 08:15:00,
2018-04-25 04:20:00,50.1,37.7,30.08,North,-9999,-999.9,-999.0,62,-99.99,,,-99.99,BloomSky,2018-04-25 08:20:00,
2018-04-25 04:25:00,50.1,36.9,30.06,North,-9999,-999.9,-999.0,60,-99.99,,,-99.99,BloomSky,2018-04-25 08:25:00,
2018-04-25 04:30:00,50.1,38.1,30.06,North,-9999,-999.9,-999.0,63,-99.99,,,-99.99,BloomSky,2018-04-25 08:30:00,
2018-04-25 04:35:00,50.0,37.6,30.06,North,-9999,-999.9,-999.0,62,-99.99,,,-99.99,BloomSky,2018-04-25 08:35:00,
2018-04-25 04:40:00,49.7,38.5,30.06,North,-9999,-999.9,-999.0,65,-99.99,,,-99.99,BloomSky,2018-04-25 08:40:00,
2018-04-25 04:45:00,49.6,37.6,30.06,North,-9999,-999.9,-999.0,63,-99.99,,,-99.99,BloomSky,2018-04-25 08:45:00,
2018-04-25 04:50:00,49.5,37.1,30.06,North,-9999,-999.9,-999.0,62,-99.99,,,-99.99,BloomSky,2018-04-25 08:50:00,
2018-04-25 04:55:00,49.4,39.0,30.06,North,-9999,-999.9,-999.0,67,-99.99,,,-99.99,BloomSky,2018-04-25 08:55:00,
2018-04-25 05:00:00,49.2,38.4,30.06,North,-9999,-999.9,-999.0,66,-99.99,,,-99.99,BloomSky,2018-04-25 09:00:00,
2018-04-25 05:05:00,49.0,39.0,30.06,North,-9999,-999.9,-999.0,68,-99.99,,,-99.99,BloomSky,2018-04-25 09:05:00,
2018-04-25 05:10:00,48.8,39.1,30.06,North,-9999,-999.9,-999.0,69,-99.99,,,-99.99,BloomSky,2018-04-25 09:10:00,
2018-04-25 05:16:00,48.6,39.4,30.06,North,-9999,-999.9,-999.0,70,-99.99,,,-99.99,BloomSky,2018-04-25 09:16:00,
2018-04-25 05:22:00,48.5,39.6,30.06,North,-9999,-999.9,-999.0,71,-99.99,,,-99.99,BloomSky,2018-04-25 09:22:00,
2018-04-25 05:29:00,48.3,39.8,30.06,North,-9999,-999.9,-999.0,72,-99.99,,,-99.99,BloomSky,2018-04-25 09:29:00,
2018-04-25 05:35:00,48.1,40.0,30.06,North,-9999,-999.9,-999.0,73,-99.99,,,-99.99,BloomSky,2018-04-25 09:35:00,
2018-04-25 05:43:00,48.0,40.2,30.06,North,-9999,-999.9,-999.0,74,-99.99,,,-99.99,BloomSky,2018-04-25 09:43:00,
2018-04-25 05:49:00,47.8,40.4,30.06,North,-9999,-999.9,-999.0,75,-99.99,,,-99.99,BloomSky,2018-04-25 09:49:00,
2018-04-25 05:50:00,47.8,40.4,30.06,North,-9999,-999.9,-999.0,75,-99.99,,,-99.99,BloomSky,2018-04-25 09:50:00,
2018-04-25 05:59:00,47.8,38.2,30.06,North,-9999,-999.9,-999.0,69,-99.99,,,-99.99,BloomSky,2018-04-25 09:59:00,
2018-04-25 06:05:00,47.9,39.1,30.06,North,-9999,-999.9,-999.0,71,-99.99,,,-99.99,BloomSky,2018-04-25 10:05:00,
2018-04-25 06:13:00,47.9,38.7,30.06,North,-9999,-999.9,-999.0,70,-99.99,,,-99.99,BloomSky,2018-04-25 10:13:00,
2018-04-25 06:20:00,48.0,38.7,30.06,North,-9999,-999.9,-999.0,70,-99.99,,,-99.99,BloomSky,2018-04-25 10:20:00,
2018-04-25 06:28:00,48.1,39.6,30.09,North,-9999,-999.9,-999.0,72,-99.99,,,-99.99,BloomSky,2018-04-25 10:28:00,
2018-04-25 06:34:00,48.3,39.5,30.06,North,-9999,-999.9,-999.0,71,-99.99,,,-99.99,BloomSky,2018-04-25 10:34:00,
2018-04-25 06:43:00,48.8,39.5,30.06,North,-9999,-999.9,-999.0,70,-99.99,,,-99.99,BloomSky,2018-04-25 10:43:00,
2018-04-25 06:49:00,49.0,40.1,30.06,North,-9999,-999.9,-999.0,71,-99.99,,,-99.99,BloomSky,2018-04-25 10:49:00,
2018-04-25 06:58:00,49.7,40.7,30.06,North,-9999,-999.9,-999.0,71,-99.99,,,-99.99,BloomSky,2018-04-25 10:58:00,
2018-04-25 07:03:00,50.0,40.3,30.06,North,-9999,-999.9,-999.0,69,-99.99,,,-99.99,BloomSky,2018-04-25 11:03:00,
2018-04-25 07:09:00,50.3,40.6,30.05,North,-9999,-999.9,-999.0,69,-99.99,,,-99.99,BloomSky,2018-04-25 11:09:00,
2018-04-25 07:18:00,50.8,40.8,30.05,North,-9999,-999.9,-999.0,68,-99.99,,,-99.99,BloomSky,2018-04-25 11:18:00,
2018-04-25 07:24:00,51.1,41.4,30.05,North,-9999,-999.9,-999.0,69,-99.99,,,-99.99,BloomSky,2018-04-25 11:24:00,
2018-04-25 07:33:00,51.5,42.1,30.05,North,-9999,-999.9,-999.0,70,-99.99,,,-99.99,BloomSky,2018-04-25 11:33:00,
2018-04-25 07:39:00,51.7,41.6,30.05,North,-9999,-999.9,-999.0,68,-99.99,,,-99.99,BloomSky,2018-04-25 11:39:00,
2018-04-25 07:47:00,52.2,42.4,30.05,North,-9999,-999.9,-999.0,69,-99.99,,,-99.99,BloomSky,2018-04-25 11:47:00,
2018-04-25 07:53:00,52.4,42.6,30.05,North,-9999,-999.9,-999.0,69,-99.99,,,-99.99,BloomSky,2018-04-25 11:53:00,
2018-04-25 07:57:00,52.4,42.6,30.05,North,-9999,-999.9,-999.0,69,-99.99,,,-99.99,BloomSky,2018-04-25 11:57:00,
2018-04-25 08:06:00,52.8,44.1,30.05,North,-9999,-999.9,-999.0,72,-99.99,,,-99.99,BloomSky,2018-04-25 12:06:00,
2018-04-25 08:08:00,52.8,44.1,30.05,North,-9999,-999.9,-999.0,72,-99.99,,,-99.99,BloomSky,2018-04-25 12:08:00,
2018-04-25 08:17:00,53.0,44.3,30.05,North,-9999,-999.9,-999.0,72,-99.99,,,-99.99,BloomSky,2018-04-25 12:17:00,
2018-04-25 08:22:00,53.1,44.4,30.05,North,-9999,-999.9,-999.0,72,-99.99,,,-99.99,BloomSky,2018-04-25 12:22:00,
2018-04-25 08:28:00,53.0,46.4,30.05,North,-9999,-999.9,-999.0,78,-99.99,,,-99.99,BloomSky,2018-04-25 12:28:00,
2018-04-25 08:33:00,52.8,46.8,30.05,North,-9999,-999.9,-999.0,80,-99.99,,,-99.99,BloomSky,2018-04-25 12:33:00,
2018-04-25 08:39:00,52.8,46.8,30.05,North,-9999,-999.9,-999.0,80,-99.99,,,-99.99,BloomSky,2018-04-25 12:39:00,
2018-04-25 08:48:00,52.5,47.2,30.05,North,-9999,-999.9,-999.0,82,-99.99,,,-99.99,BloomSky,2018-04-25 12:48:00,
2018-04-25 08:57:00,52.9,48.2,30.05,North,-9999,-999.9,-999.0,84,-99.99,,,-99.99,BloomSky,2018-04-25 12:57:00,
2018-04-25 09:01:00,53.1,49.3,30.05,North,-9999,-999.9,-999.0,87,-99.99,,,-99.99,BloomSky,2018-04-25 13:01:00,
2018-04-25 09:03:00,53.1,49.3,30.05,North,-9999,-999.9,-999.0,87,-99.99,,,-99.99,BloomSky,2018-04-25 13:03:00,
2018-04-25 09:12:00,53.5,48.8,30.05,North,-9999,-999.9,-999.0,84,-99.99,,,-99.99,BloomSky,2018-04-25 13:12:00,
2018-04-25 09:22:00,53.6,50.1,30.02,North,-9999,-999.9,-999.0,88,-99.99,,,-99.99,BloomSky,2018-04-25 13:22:00,
2018-04-25 09:28:00,53.8,49.4,30.02,North,-9999,-999.9,-999.0,85,-99.99,,,-99.99,BloomSky,2018-04-25 13:28:00,
2018-04-25 09:33:00,53.5,49.4,30.02,North,-9999,-999.9,-999.0,86,-99.99,,,-99.99,BloomSky,2018-04-25 13:33:00,
2018-04-25 09:38:00,53.5,50.0,30.02,North,-9999,-999.9,-999.0,88,-99.99,,,-99.99,BloomSky,2018-04-25 13:38:00,
2018-04-25 09:43:00,53.3,49.9,30.02,North,-9999,-999.9,-999.0,88,-99.99,,,-99.99,BloomSky,2018-04-25 13:43:00,
2018-04-25 09:48:00,53.5,50.3,30.02,North,-9999,-999.9,-999.0,89,-99.99,,,-99.99,BloomSky,2018-04-25 13:48:00,
2018-04-25 09:53:00,53.8,51.8,30.02,North,-9999,-999.9,-999.0,93,-99.99,,,-99.99,BloomSky,2018-04-25 13:53:00,
2018-04-25 09:58:00,54.1,51.2,30.02,North,-9999,-999.9,-999.0,90,-99.99,,,-99.99,BloomSky,2018-04-25 13:58:00,
2018-04-25 10:03:00,54.1,50.6,30.02,North,-9999,-999.9,-999.0,88,-99.99,,,-99.99,BloomSky,2018-04-25 14:03:00,
2018-04-25 10:08:00,54.4,51.7,30.02,North,-9999,-999.9,-999.0,91,-99.99,,,-99.99,BloomSky,2018-04-25 14:08:00,
2018-04-25 10:13:00,54.4,51.8,30.02,North,-9999,-999.9,-999.0,91,-99.99,,,-99.99,BloomSky,2018-04-25 14:13:00,
2018-04-25 10:18:00,54.5,51.3,30.02,North,-9999,-999.9,-999.0,89,-99.99,,,-99.99,BloomSky,2018-04-25 14:18:00,
2018-04-25 10:24:00,54.6,51.4,30.02,North,-9999,-999.9,-999.0,89,-99.99,,,-99.99,BloomSky,2018-04-25 14:24:00,
2018-04-25 10:33:00,54.8,51.3,29.99,North,-9999,-999.9,-999.0,88,-99.99,,,-99.99,BloomSky,2018-04-25 14:33:00,
2018-04-25 10:38:00,54.9,51.4,29.99,North,-9999,-999.9,-999.0,88,-99.99,,,-99.99,BloomSky,2018-04-25 14:38:00,
2018-04-25 10:43:00,55.1,52.2,29.99,North,-9999,-999.9,-999.0,90,-99.99,,,-99.99,BloomSky,2018-04-25 14:43:00,
2018-04-25 10:49:00,55.2,51.7,29.99,North,-9999,-999.9,-999.0,88,-99.99,,,-99.99,BloomSky,2018-04-25 14:49:00,
2018-04-25 10:58:00,55.0,52.1,29.99,North,-9999,-999.9,-999.0,90,-99.99,,,-99.99,BloomSky,2018-04-25 14:58:00,
2018-04-25 11:05:00,55.1,52.5,29.99,North,-9999,-999.9,-999.0,91,-99.99,,,-99.99,BloomSky,2018-04-25 15:05:00,
2018-04-25 11:10:00,55.0,52.1,29.99,North,-9999,-999.9,-999.0,90,-99.99,,,-99.99,BloomSky,2018-04-25 15:10:00,
2018-04-25 11:15:00,55.1,52.5,29.99,North,-9999,-999.9,-999.0,91,-99.99,,,-99.99,BloomSky,2018-04-25 15:15:00,
2018-04-25 11:20:00,55.0,52.1,29.99,North,-9999,-999.9,-999.0,90,-99.99,,,-99.99,BloomSky,2018-04-25 15:20:00,
2018-04-25 11:26:00,55.0,52.4,29.99,North,-9999,-999.9,-999.0,91,-99.99,,,-99.99,BloomSky,2018-04-25 15:26:00,
2018-04-25 11:36:00,55.1,52.8,29.99,North,-9999,-999.9,-999.0,92,-99.99,,,-99.99,BloomSky,2018-04-25 15:36:00,
2018-04-25 11:41:00,54.9,52.8,29.99,North,-9999,-999.9,-999.0,93,-99.99,,,-99.99,BloomSky,2018-04-25 15:41:00,
2018-04-25 11:50:00,54.5,52.5,29.99,North,-9999,-999.9,-999.0,93,-99.99,,,-99.99,BloomSky,2018-04-25 15:50:00,
2018-04-25 11:59:00,54.5,53.1,29.96,North,-9999,-999.9,-999.0,95,-99.99,,,-99.99,BloomSky,2018-04-25 15:59:00,
2018-04-25 12:04:00,54.7,53.2,29.96,North,-9999,-999.9,-999.0,95,-99.99,,,-99.99,BloomSky,2018-04-25 16:04:00,
2018-04-25 12:10:00,54.8,53.4,29.96,North,-9999,-999.9,-999.0,95,-99.99,,,-99.99,BloomSky,2018-04-25 16:10:00,
2018-04-25 12:19:00,55.0,53.0,29.96,North,-9999,-999.9,-999.0,93,-99.99,,,-99.99,BloomSky,2018-04-25 16:19:00,
2018-04-25 12:25:00,55.0,53.5,29.96,North,-9999,-999.9,-999.0,95,-99.99,,,-99.99,BloomSky,2018-04-25 16:25:00,
2018-04-25 12:34:00,54.9,53.2,29.96,North,-9999,-999.9,-999.0,94,-99.99,,,-99.99,BloomSky,2018-04-25 16:34:00,
2018-04-25 12:39:00,55.1,53.7,29.93,North,-9999,-999.9,-999.0,95,-99.99,,,-99.99,BloomSky,2018-04-25 16:39:00,
2018-04-25 12:43:00,55.1,53.0,29.93,North,-9999,-999.9,-999.0,93,-99.99,,,-99.99,BloomSky,2018-04-25 16:43:00,
2018-04-25 12:45:00,55.1,53.0,29.93,North,-9999,-999.9,-999.0,93,-99.99,,,-99.99,BloomSky,2018-04-25 16:45:00,
2018-04-25 12:53:00,54.9,53.2,29.94,North,-9999,-999.9,-999.0,94,-99.99,,,-99.99,BloomSky,2018-04-25 16:53:00,
2018-04-25 13:02:00,54.8,53.1,29.94,North,-9999,-999.9,-999.0,94,-99.99,,,-99.99,BloomSky,2018-04-25 17:02:00,
2018-04-25 13:12:00,54.8,54.0,29.94,North,-9999,-999.9,-999.0,97,-99.99,,,-99.99,BloomSky,2018-04-25 17:12:00,
2018-04-25 13:17:00,54.6,53.8,29.94,North,-9999,-999.9,-999.0,97,-99.99,,,-99.99,BloomSky,2018-04-25 17:17:00,
2018-04-25 13:22:00,54.4,53.5,29.94,North,-9999,-999.9,-999.0,97,-99.99,,,-99.99,BloomSky,2018-04-25 17:22:00,
2018-04-25 13:27:00,54.1,52.6,29.94,North,-9999,-999.9,-999.0,95,-99.99,,,-99.99,BloomSky,2018-04-25 17:27:00,
2018-04-25 13:32:00,53.9,53.1,29.94,North,-9999,-999.9,-999.0,97,-99.99,,,-99.99,BloomSky,2018-04-25 17:32:00,
2018-04-25 13:33:00,53.9,53.1,29.94,North,-9999,-999.9,-999.0,97,-99.99,,,-99.99,BloomSky,2018-04-25 17:33:00,
2018-04-25 13:41:00,53.6,53.0,29.91,North,-9999,-999.9,-999.0,98,-99.99,,,-99.99,BloomSky,2018-04-25 17:41:00,
2018-04-25 13:51:00,53.5,52.6,29.91,North,-9999,-999.9,-999.0,97,-99.99,,,-99.99,BloomSky,2018-04-25 17:51:00,
2018-04-25 13:56:00,53.2,52.7,29.91,North,-9999,-999.9,-999.0,98,-99.99,,,-99.99,BloomSky,2018-04-25 17:56:00,
2018-04-25 14:01:00,53.2,52.6,29.91,North,-9999,-999.9,-999.0,98,-99.99,,,-99.99,BloomSky,2018-04-25 18:01:00,
2018-04-25 14:07:00,53.2,52.6,29.91,North,-9999,-999.9,-999.0,98,-99.99,,,-99.99,BloomSky,2018-04-25 18:07:00,
2018-04-25 14:12:00,53.0,52.4,29.91,North,-9999,-999.9,-999.0,98,-99.99,,,-99.99,BloomSky,2018-04-25 18:12:00,
2018-04-25 14:17:00,53.2,52.9,29.91,North,-9999,-999.9,-999.0,99,-99.99,,,-99.99,BloomSky,2018-04-25 18:17:00,
2018-04-25 14:22:00,53.1,52.8,29.91,North,-9999,-999.9,-999.0,99,-99.99,,,-99.99,BloomSky,2018-04-25 18:22:00,
2018-04-25 14:27:00,53.0,52.8,29.88,North,-9999,-999.9,-999.0,99,-99.99,,,-99.99,BloomSky,2018-04-25 18:27:00,
2018-04-25 14:32:00,53.0,52.7,29.91,North,-9999,-999.9,-999.0,99,-99.99,,,-99.99,BloomSky,2018-04-25 18:32:00,
2018-04-25 14:37:00,52.8,52.5,29.88,North,-9999,-999.9,-999.0,99,-99.99,,,-99.99,BloomSky,2018-04-25 18:37:00,
2018-04-25 14:42:00,52.7,52.4,29.88,North,-9999,-999.9,-999.0,99,-99.99,,,-99.99,BloomSky,2018-04-25 18:42:00,
2018-04-25 14:47:00,52.6,52.3,29.88,North,-9999,-999.9,-999.0,99,-99.99,,,-99.99,BloomSky,2018-04-25 18:47:00,
2018-04-25 14:57:00,52.3,52.0,29.88,North,-9999,-999.9,-999.0,99,-99.99,,,-99.99,BloomSky,2018-04-25 18:57:00,
2018-04-25 15:08:00,52.0,51.7,29.88,North,-9999,-999.9,-999.0,99,-99.99,,,-99.99,BloomSky,2018-04-25 19:08:00,
2018-04-25 15:17:00,52.1,51.8,29.88,North,-9999,-999.9,-999.0,99,-99.99,,,-99.99,BloomSky,2018-04-25 19:17:00,
2018-04-25 15:22:00,52.2,51.9,29.85,North,-9999,-999.9,-999.0,99,-99.99,,,-99.99,BloomSky,2018-04-25 19:22:00,
2018-04-25 15:27:00,52.2,52.0,29.85,North,-9999,-999.9,-999.0,99,-99.99,,,-99.99,BloomSky,2018-04-25 19:27:00,
2018-04-25 15:32:00,52.3,52.0,29.85,North,-9999,-999.9,-999.0,99,-99.99,,,-99.99,BloomSky,2018-04-25 19:32:00,
2018-04-25 15:37:00,52.3,52.1,29.85,North,-9999,-999.9,-999.0,99,-99.99,,,-99.99,BloomSky,2018-04-25 19:37:00,
2018-04-25 15:42:00,52.2,51.9,29.85,North,-9999,-999.9,-999.0,99,-99.99,,,-99.99,BloomSky,2018-04-25 19:42:00,
2018-04-25 15:48:00,52.2,51.9,29.85,North,-9999,-999.9,-999.0,99,-99.99,,,-99.99,BloomSky,2018-04-25 19:48:00,
2018-04-25 15:56:00,52.1,51.8,29.85,North,-9999,-999.9,-999.0,99,-99.99,,,-99.99,BloomSky,2018-04-25 19:56:00,
2018-04-25 16:02:00,52.0,51.7,29.85,North,-9999,-999.9,-999.0,99,-99.99,,,-99.99,BloomSky,2018-04-25 20:02:00,
2018-04-25 16:11:00,51.9,51.6,29.82,North,-9999,-999.9,-999.0,99,-99.99,,,-99.99,BloomSky,2018-04-25 20:11:00,
2018-04-25 16:16:00,51.9,51.6,29.82,North,-9999,-999.9,-999.0,99,-99.99,,,-99.99,BloomSky,2018-04-25 20:16:00,
2018-04-25 16:22:00,51.9,51.6,29.82,North,-9999,-999.9,-999.0,99,-99.99,,,-99.99,BloomSky,2018-04-25 20:22:00,
2018-04-25 16:31:00,51.9,51.6,29.82,North,-9999,-999.9,-999.0,99,-99.99,,,-99.99,BloomSky,2018-04-25 20:31:00,
2018-04-25 16:36:00,51.9,51.6,29.82,North,-9999,-999.9,-999.0,99,-99.99,,,-99.99,BloomSky,2018-04-25 20:36:00,
2018-04-25 16:41:00,51.8,51.5,29.82,North,-9999,-999.9,-999.0,99,-99.99,,,-99.99,BloomSky,2018-04-25 20:41:00,
2018-04-25 16:46:00,51.8,51.5,29.82,North,-9999,-999.9,-999.0,99,-99.99,,,-99.99,BloomSky,2018-04-25 20:46:00,
2018-04-25 16:51:00,51.6,51.4,29.82,North,-9999,-999.9,-999.0,99,-99.99,,,-99.99,BloomSky,2018-04-25 20:51:00,
2018-04-25 16:56:00,51.5,51.2,29.82,North,-9999,-999.9,-999.0,99,-99.99,,,-99.99,BloomSky,2018-04-25 20:56:00,
2018-04-25 17:01:00,51.4,51.2,29.82,North,-9999,-999.9,-999.0,99,-99.99,,,-99.99,BloomSky,2018-04-25 21:01:00,
2018-04-25 17:11:00,51.2,50.9,29.82,North,-9999,-999.9,-999.0,99,-99.99,,,-99.99,BloomSky,2018-04-25 21:11:00,
2018-04-25 17:16:00,51.1,50.9,29.79,North,-9999,-999.9,-999.0,99,-99.99,,,-99.99,BloomSky,2018-04-25 21:16:00,
2018-04-25 17:21:00,51.0,50.7,29.79,North,-9999,-999.9,-999.0,99,-99.99,,,-99.99,BloomSky,2018-04-25 21:21:00,
2018-04-25 17:27:00,50.9,50.6,29.79,North,-9999,-999.9,-999.0,99,-99.99,,,-99.99,BloomSky,2018-04-25 21:27:00,
2018-04-25 17:36:00,50.8,50.5,29.79,North,-9999,-999.9,-999.0,99,-99.99,,,-99.99,BloomSky,2018-04-25 21:36:00,
2018-04-25 17:42:00,50.8,50.5,29.79,North,-9999,-999.9,-999.0,99,-99.99,,,-99.99,BloomSky,2018-04-25 21:42:00,
2018-04-25 17:52:00,50.7,50.5,29.79,North,-9999,-999.9,-999.0,99,-99.99,,,-99.99,BloomSky,2018-04-25 21:52:00,
2018-04-25 18:01:00,50.7,50.4,29.76,North,-9999,-999.9,-999.0,99,-99.99,,,-99.99,BloomSky,2018-04-25 22:01:00,
2018-04-25 18:09:00,50.6,50.3,29.76,North,-9999,-999.9,-999.0,99,-99.99,,,-99.99,BloomSky,2018-04-25 22:09:00,
2018-04-25 18:12:00,50.6,50.3,29.76,North,-9999,-999.9,-999.0,99,-99.99,,,-99.99,BloomSky,2018-04-25 22:12:00,
2018-04-25 18:20:00,50.6,50.3,29.76,North,-9999,-999.9,-999.0,99,-99.99,,,-99.99,BloomSky,2018-04-25 22:20:00,
2018-04-25 18:25:00,50.6,50.3,29.76,North,-9999,-999.9,-999.0,99,-99.99,,,-99.99,BloomSky,2018-04-25 22:25:00,
2018-04-25 18:36:00,50.6,50.3,29.73,North,-9999,-999.9,-999.0,99,-99.99,,,-99.99,BloomSky,2018-04-25 22:36:00,
2018-04-25 18:45:00,50.6,50.3,29.73,North,-9999,-999.9,-999.0,99,-99.99,,,-99.99,BloomSky,2018-04-25 22:45:00,
2018-04-25 18:49:00,50.6,50.4,29.73,North,-9999,-999.9,-999.0,99,-99.99,,,-99.99,BloomSky,2018-04-25 22:49:00,
2018-04-25 18:51:00,50.6,50.4,29.73,North,-9999,-999.9,-999.0,99,-99.99,,,-99.99,BloomSky,2018-04-25 22:51:00,
2018-04-25 19:00:00,50.6,50.3,29.73,North,-9999,-999.9,-999.0,99,-99.99,,,-99.99,BloomSky,2018-04-25 23:00:00,
2018-04-25 19:08:00,50.5,50.2,29.73,North,-9999,-999.9,-999.0,99,-99.99,,,-99.99,BloomSky,2018-04-25 23:08:00,
2018-04-25 19:15:00,50.5,50.2,29.73,North,-9999,-999.9,-999.0,99,-99.99,,,-99.99,BloomSky,2018-04-25 23:15:00,
2018-04-25 19:21:00,50.5,50.2,29.73,North,-9999,-999.9,-999.0,99,-99.99,,,-99.99,BloomSky,2018-04-25 23:21:00,
2018-04-25 19:29:00,50.5,50.2,29.73,North,-9999,-999.9,-999.0,99,-99.99,,,-99.99,BloomSky,2018-04-25 23:29:00,
2018-04-25 19:35:00,50.5,50.2,29.73,North,-9999,-999.9,-999.0,99,-99.99,,,-99.99,BloomSky,2018-04-25 23:35:00,
2018-04-25 19:42:00,50.6,50.3,29.70,North,-9999,-999.9,-999.0,99,-99.99,,,-99.99,BloomSky,2018-04-25 23:42:00,
2018-04-25 19:50:00,50.8,50.6,29.70,North,-9999,-999.9,-999.0,99,-99.99,,,-99.99,BloomSky,2018-04-25 23:50:00,
2018-04-25 19:57:00,51.2,50.9,29.70,North,-9999,-999.9,-999.0,99,-99.99,,,-99.99,BloomSky,2018-04-25 23:57:00,
2018-04-25 20:04:00,51.3,51.0,29.70,North,-9999,-999.9,-999.0,99,-99.99,,,-99.99,BloomSky,2018-04-26 00:04:00,
2018-04-25 20:11:00,51.3,51.0,29.70,North,-9999,-999.9,-999.0,99,-99.99,,,-99.99,BloomSky,2018-04-26 00:11:00,
2018-04-25 20:21:00,51.2,50.9,29.70,North,-9999,-999.9,-999.0,99,-99.99,,,-99.99,BloomSky,2018-04-26 00:21:00,
2018-04-25 20:26:00,51.0,50.7,29.70,North,-9999,-999.9,-999.0,99,-99.99,,,-99.99,BloomSky,2018-04-26 00:26:00,
2018-04-25 20:31:00,50.9,50.6,29.70,North,-9999,-999.9,-999.0,99,-99.99,,,-99.99,BloomSky,2018-04-26 00:31:00,
2018-04-25 20:36:00,50.8,50.5,29.70,North,-9999,-999.9,-999.0,99,-99.99,,,-99.99,BloomSky,2018-04-26 00:36:00,
2018-04-25 20:41:00,50.6,50.3,29.70,North,-9999,-999.9,-999.0,99,-99.99,,,-99.99,BloomSky,2018-04-26 00:41:00,
2018-04-25 20:46:00,50.5,50.2,29.70,North,-9999,-999.9,-999.0,99,-99.99,,,-99.99,BloomSky,2018-04-26 00:46:00,
2018-04-25 20:51:00,50.4,50.1,29.70,North,-9999,-999.9,-999.0,99,-99.99,,,-99.99,BloomSky,2018-04-26 00:51:00,
2018-04-25 20:56:00,50.3,50.0,29.70,North,-9999,-999.9,-999.0,99,-99.99,,,-99.99,BloomSky,2018-04-26 00:56:00,
2018-04-25 21:01:00,50.1,49.9,29.70,North,-9999,-999.9,-999.0,99,-99.99,,,-99.99,BloomSky,2018-04-26 01:01:00,
2018-04-25 21:11:00,50.0,49.7,29.67,North,-9999,-999.9,-999.0,99,-99.99,,,-99.99,BloomSky,2018-04-26 01:11:00,
2018-04-25 21:16:00,49.8,49.5,29.67,North,-9999,-999.9,-999.0,99,-99.99,,,-99.99,BloomSky,2018-04-26 01:16:00,
2018-04-25 21:21:00,49.8,49.5,29.70,North,-9999,-999.9,-999.0,99,-99.99,,,-99.99,BloomSky,2018-04-26 01:21:00,
2018-04-25 21:26:00,49.7,49.4,29.67,North,-9999,-999.9,-999.0,99,-99.99,,,-99.99,BloomSky,2018-04-26 01:26:00,
2018-04-25 21:31:00,49.6,49.3,29.67,North,-9999,-999.9,-999.0,99,-99.99,,,-99.99,BloomSky,2018-04-26 01:31:00,
2018-04-25 21:36:00,49.5,49.3,29.67,North,-9999,-999.9,-999.0,99,-99.99,,,-99.99,BloomSky,2018-04-26 01:36:00,
2018-04-25 21:41:00,49.5,49.2,29.67,North,-9999,-999.9,-999.0,99,-99.99,,,-99.99,BloomSky,2018-04-26 01:41:00,
2018-04-25 21:46:00,49.4,49.1,29.67,North,-9999,-999.9,-999.0,99,-99.99,,,-99.99,BloomSky,2018-04-26 01:46:00,
2018-04-25 21:51:00,49.4,49.1,29.67,North,-9999,-999.9,-999.0,99,-99.99,,,-99.99,BloomSky,2018-04-26 01:51:00,
2018-04-25 21:56:00,49.3,49.1,29.67,North,-9999,-999.9,-999.0,99,-99.99,,,-99.99,BloomSky,2018-04-26 01:56:00,
2018-04-25 22:02:00,49.4,49.1,29.67,North,-9999,-999.9,-999.0,99,-99.99,,,-99.99,BloomSky,2018-04-26 02:02:00,
2018-04-25 22:07:00,49.3,49.0,29.67,North,-9999,-999.9,-999.0,99,-99.99,,,-99.99,BloomSky,2018-04-26 02:07:00,
2018-04-25 22:12:00,49.3,49.0,29.67,North,-9999,-999.9,-999.0,99,-99.99,,,-99.99,BloomSky,2018-04-26 02:12:00,
2018-04-25 22:17:00,49.3,49.0,29.67,North,-9999,-999.9,-999.0,99,-99.99,,,-99.99,BloomSky,2018-04-26 02:17:00,
2018-04-25 22:22:00,49.3,49.0,29.64,North,-9999,-999.9,-999.0,99,-99.99,,,-99.99,BloomSky,2018-04-26 02:22:00,
2018-04-25 22:27:00,49.3,49.0,29.64,North,-9999,-999.9,-999.0,99,-99.99,,,-99.99,BloomSky,2018-04-26 02:27:00,
2018-04-25 22:32:00,49.2,49.0,29.64,North,-9999,-999.9,-999.0,99,-99.99,,,-99.99,BloomSky,2018-04-26 02:32:00,
2018-04-25 22:37:00,49.2,48.9,29.64,North,-9999,-999.9,-999.0,99,-99.99,,,-99.99,BloomSky,2018-04-26 02:37:00,
2018-04-25 22:42:00,49.2,48.9,29.64,North,-9999,-999.9,-999.0,99,-99.99,,,-99.99,BloomSky,2018-04-26 02:42:00,
2018-04-25 22:47:00,49.2,48.9,29.64,North,-9999,-999.9,-999.0,99,-99.99,,,-99.99,BloomSky,2018-04-26 02:47:00,
2018-04-25 22:52:00,49.2,49.0,29.64,North,-9999,-999.9,-999.0,99,-99.99,,,-99.99,BloomSky,2018-04-26 02:52:00,
2018-04-25 22:57:00,49.3,49.0,29.64,North,-9999,-999.9,-999.0,99,-99.99,,,-99.99,BloomSky,2018-04-26 02:57:00,
2018-04-25 23:02:00,49.2,49.0,29.64,North,-9999,-999.9,-999.0,99,-99.99,,,-99.99,BloomSky,2018-04-26 03:02:00,
2018-04-25 23:07:00,49.2,48.9,29.64,North,-9999,-999.9,-999.0,99,-99.99,,,-99.99,BloomSky,2018-04-26 03:07:00,